Time;durP1;ratioP1;P1;durP2;ratioP2;P2;SDS_P1;SDS_P2;PMS_P1;PMS_P2;Temp;Humidity;BMP_temperature;BMP_pressure;BME280_temperature;BME280_humidity;BME280_pressure;Samples;Min_cycle;Max_cycle;Signal;HPM_P1;HPM_P2
2024/03/15 00:02:16;;;;;;;15.07;7.93;;;;;;;;;;4996328;28;20038;-82
2024/03/15 00:04:42;;;;;;;17.38;9.70;;;;;;;;;;4985511;28;20025;-83
2024/03/15 00:07:08;;;;;;;17.05;8.75;;;;;;;;;;5006232;28;20048;-83
2024/03/15 00:09:34;;;;;;;14.60;9.55;;;;;;;;;;4983320;28;20041;-83
2024/03/15 00:12:02;;;;;;;15.45;9.77;;;;;;;;;;4986676;28;20030;-84
2024/03/15 00:14:28;;;;;;;17.60;9.85;;;;;;;;;;4993386;28;20035;-83
2024/03/15 00:16:54;;;;;;;18.02;9.48;;;;;;;;;;4986032;28;20413;-83
2024/03/15 00:19:21;;;;;;;16.65;9.52;;;;;;;;;;4976967;28;20039;-82
2024/03/15 00:21:47;;;;;;;17.52;9.55;;;;;;;;;;4996222;28;20025;-83
2024/03/15 00:24:14;;;;;;;18.23;9.48;;;;;;;;;;4998850;28;20026;-83
2024/03/15 00:26:41;;;;;;;17.75;9.25;;;;;;;;;;4983753;28;20034;-82
2024/03/15 00:29:06;;;;;;;17.25;9.60;;;;;;;;;;4979257;28;20052;-82
2024/03/15 00:31:34;;;;;;;18.15;9.90;;;;;;;;;;5001177;28;20010;-83
2024/03/15 00:34:04;;;;;;;16.05;9.68;;;;;;;;;;4986824;28;20022;-83
2024/03/15 00:36:33;;;;;;;18.73;9.40;;;;;;;;;;5009811;28;20033;-83
2024/03/15 00:38:59;;;;;;;17.83;9.45;;;;;;;;;;5008745;28;20056;-82
2024/03/15 00:41:26;;;;;;;20.35;10.02;;;;;;;;;;4988350;28;20060;-83
2024/03/15 00:43:53;;;;;;;23.33;9.93;;;;;;;;;;4966904;28;20034;-82
2024/03/15 00:46:20;;;;;;;16.90;9.50;;;;;;;;;;5022278;28;20026;-83
2024/03/15 00:48:46;;;;;;;19.02;10.60;;;;;;;;;;5000317;28;20052;-82
2024/03/15 00:51:15;;;;;;;18.17;9.63;;;;;;;;;;4990536;28;20033;-82
2024/03/15 00:53:41;;;;;;;18.33;10.27;;;;;;;;;;4989242;28;20044;-82
2024/03/15 00:56:08;;;;;;;18.42;9.73;;;;;;;;;;5011556;28;20033;-83
2024/03/15 00:58:34;;;;;;;20.25;10.57;;;;;;;;;;4995948;28;20025;-83
2024/03/15 01:01:01;;;;;;;16.65;9.80;;;;;;;;;;4997801;28;20034;-83
2024/03/15 01:03:26;;;;;;;17.23;9.48;;;;;;;;;;4969225;28;20060;-83
2024/03/15 01:05:52;;;;;;;19.33;9.93;;;;;;;;;;4971364;28;20037;-83
2024/03/15 01:08:18;;;;;;;18.92;10.25;;;;;;;;;;4994975;28;20037;-83
2024/03/15 01:10:46;;;;;;;16.75;10.43;;;;;;;;;;4985623;28;20062;-82
2024/03/15 01:13:12;;;;;;;17.33;9.45;;;;;;;;;;5007306;28;20041;-83
2024/03/15 01:15:39;;;;;;;16.45;9.95;;;;;;;;;;5023982;28;20049;-82
2024/03/15 01:18:07;;;;;;;17.83;9.85;;;;;;;;;;4965479;28;20030;-82
2024/03/15 01:20:33;;;;;;;16.88;9.23;;;;;;;;;;5013531;28;20029;-82
2024/03/15 01:22:59;;;;;;;21.63;10.50;;;;;;;;;;4977976;28;20026;-83
2024/03/15 01:25:26;;;;;;;23.55;10.13;;;;;;;;;;5013022;28;20088;-82
2024/03/15 01:27:51;;;;;;;21.10;10.90;;;;;;;;;;5003342;28;20033;-83
2024/03/15 01:30:19;;;;;;;17.45;10.38;;;;;;;;;;4990611;28;20102;-84
2024/03/15 01:32:45;;;;;;;20.25;10.07;;;;;;;;;;4991433;28;20049;-82
2024/03/15 01:35:16;;;;;;;20.02;10.20;;;;;;;;;;4980320;28;20088;-83
2024/03/15 01:37:42;;;;;;;21.40;10.32;;;;;;;;;;5021768;28;20060;-83
2024/03/15 01:40:09;;;;;;;22.35;10.88;;;;;;;;;;4996475;28;20037;-83
2024/03/15 01:42:36;;;;;;;23.80;10.95;;;;;;;;;;4966944;28;20046;-82
2024/03/15 01:45:02;;;;;;;17.83;9.88;;;;;;;;;;4983127;28;20030;-82
2024/03/15 01:47:28;;;;;;;20.17;10.50;;;;;;;;;;4992055;28;20045;-82
2024/03/15 01:49:56;;;;;;;22.30;10.30;;;;;;;;;;4983938;28;20030;-83
2024/03/15 01:52:26;;;;;;;19.60;9.77;;;;;;;;;;5001569;28;20021;-83
2024/03/15 01:54:52;;;;;;;24.02;10.60;;;;;;;;;;4986068;28;20054;-83
2024/03/15 01:57:17;;;;;;;20.20;10.50;;;;;;;;;;4998059;28;20046;-82
2024/03/15 01:59:46;;;;;;;19.42;10.38;;;;;;;;;;5002772;28;20097;-83
2024/03/15 02:02:13;;;;;;;19.27;10.00;;;;;;;;;;5015115;28;20033;-82
2024/03/15 02:04:41;;;;;;;25.23;10.38;;;;;;;;;;5000988;28;20109;-83
2024/03/15 02:07:08;;;;;;;22.33;10.68;;;;;;;;;;5000937;28;20033;-82
2024/03/15 02:09:35;;;;;;;19.27;10.30;;;;;;;;;;4984246;28;20039;-82
2024/03/15 02:12:01;;;;;;;20.55;10.20;;;;;;;;;;4986892;28;20030;-84
2024/03/15 02:14:26;;;;;;;21.17;10.73;;;;;;;;;;4990382;28;20046;-82
2024/03/15 02:16:55;;;;;;;21.77;11.00;;;;;;;;;;5000412;28;20070;-83
2024/03/15 02:19:22;;;;;;;20.00;10.43;;;;;;;;;;4995814;28;20044;-82
2024/03/15 02:21:48;;;;;;;17.17;9.15;;;;;;;;;;4986843;28;20009;-83
2024/03/15 02:24:15;;;;;;;19.80;10.20;;;;;;;;;;5019309;28;20034;-82
2024/03/15 02:26:42;;;;;;;21.57;10.03;;;;;;;;;;5030771;28;20040;-83
2024/03/15 02:29:08;;;;;;;19.35;10.50;;;;;;;;;;5011811;28;20097;-83
2024/03/15 02:31:35;;;;;;;20.30;9.90;;;;;;;;;;4977164;28;20037;-83
2024/03/15 02:34:05;;;;;;;;;;;;;;;;;;4979367;28;20038;-83
2024/03/15 02:36:31;;;;;;;17.42;9.15;;;;;;;;;;4977920;28;19917;-83
2024/03/15 02:38:56;;;;;;;21.58;11.15;;;;;;;;;;4998158;28;20036;-83
2024/03/15 02:41:22;;;;;;;19.23;9.68;;;;;;;;;;4986694;28;20473;-82
2024/03/15 02:43:49;;;;;;;19.08;9.85;;;;;;;;;;5011981;28;20037;-83
2024/03/15 02:46:15;;;;;;;22.63;9.75;;;;;;;;;;4991036;28;20037;-83
2024/03/15 02:48:41;;;;;;;20.13;9.60;;;;;;;;;;4994882;28;20037;-83
2024/03/15 02:51:07;;;;;;;19.20;9.45;;;;;;;;;;4990079;28;20093;-82
2024/03/15 02:53:33;;;;;;;17.63;9.10;;;;;;;;;;5000621;28;20093;-82
2024/03/15 02:56:02;;;;;;;18.27;8.93;;;;;;;;;;4993902;28;20041;-82
2024/03/15 02:58:32;;;;;;;19.48;9.30;;;;;;;;;;4989783;28;20022;-83
2024/03/15 03:00:57;;;;;;;16.52;8.93;;;;;;;;;;4994206;28;20038;-82
2024/03/15 03:03:24;;;;;;;17.98;8.88;;;;;;;;;;4976813;28;20426;-83
2024/03/15 03:05:50;;;;;;;17.52;8.73;;;;;;;;;;5024153;28;20084;-83
2024/03/15 03:08:18;;;;;;;17.23;8.60;;;;;;;;;;4990339;28;20144;-82
2024/03/15 03:10:44;;;;;;;18.23;8.55;;;;;;;;;;4978949;28;20486;-82
2024/03/15 03:13:10;;;;;;;17.23;8.27;;;;;;;;;;4978366;28;20076;-83
2024/03/15 03:15:36;;;;;;;16.77;8.60;;;;;;;;;;5018931;28;20033;-83
2024/03/15 03:18:05;;;;;;;20.45;9.32;;;;;;;;;;5026169;28;20030;-82
2024/03/15 03:20:34;;;;;;;18.25;9.13;;;;;;;;;;5012615;28;20033;-82
2024/03/15 03:23:00;;;;;;;15.40;8.57;;;;;;;;;;4984676;28;20213;-83
2024/03/15 03:25:26;;;;;;;19.40;9.68;;;;;;;;;;5010375;28;20057;-83
2024/03/15 03:27:52;;;;;;;17.48;8.98;;;;;;;;;;5002523;28;20040;-83
2024/03/15 03:30:19;;;;;;;16.40;8.82;;;;;;;;;;5017817;28;20113;-82
2024/03/15 03:32:44;;;;;;;18.73;8.95;;;;;;;;;;5002694;28;20495;-83
2024/03/15 03:35:10;;;;;;;15.95;8.63;;;;;;;;;;4972424;28;20054;-83
2024/03/15 03:37:37;;;;;;;16.25;9.23;;;;;;;;;;5004490;28;20034;-83
2024/03/15 03:40:14;;;;;;;19.67;8.55;;;;;;;;;;5005978;28;20042;-82
2024/03/15 03:42:44;;;;;;;21.92;9.52;;;;;;;;;;5005290;28;20052;-82
2024/03/15 03:45:17;;;;;;;16.52;8.43;;;;;;;;;;4984764;28;20049;-82
2024/03/15 03:47:45;;;;;;;15.90;8.70;;;;;;;;;;4988806;28;20114;-83
2024/03/15 03:50:11;;;;;;;16.85;8.27;;;;;;;;;;4987542;28;20519;-82
2024/03/15 03:52:41;;;;;;;15.02;8.00;;;;;;;;;;5008636;28;20046;-83
2024/03/15 03:55:07;;;;;;;18.98;8.95;;;;;;;;;;4993902;28;20034;-83
2024/03/15 03:57:36;;;;;;;18.52;9.07;;;;;;;;;;4995024;28;20068;-83
2024/03/15 04:00:14;;;;;;;17.85;9.15;;;;;;;;;;4972255;28;20030;-82
2024/03/15 04:02:47;;;;;;;17.00;9.13;;;;;;;;;;4996295;28;20031;-83
2024/03/15 04:05:14;;;;;;;17.60;8.77;;;;;;;;;;5000923;28;20054;-82
2024/03/15 04:07:40;;;;;;;15.98;8.23;;;;;;;;;;4983491;28;20042;-82
2024/03/15 04:10:07;;;;;;;15.57;8.32;;;;;;;;;;4985680;28;20045;-82
2024/03/15 04:12:33;;;;;;;15.07;8.18;;;;;;;;;;5015881;28;20053;-83
2024/03/15 04:15:01;;;;;;;15.48;8.60;;;;;;;;;;5001203;28;20025;-83
2024/03/15 04:17:27;;;;;;;14.27;8.25;;;;;;;;;;5003540;28;20122;-83
2024/03/15 04:19:53;;;;;;;14.40;8.48;;;;;;;;;;5011671;28;20030;-83
2024/03/15 04:22:21;;;;;;;17.52;8.95;;;;;;;;;;4989531;28;20026;-82
2024/03/15 04:24:49;;;;;;;16.00;8.63;;;;;;;;;;4989532;28;20038;-83
2024/03/15 04:27:16;;;;;;;16.90;8.90;;;;;;;;;;4971087;28;20033;-82
2024/03/15 04:29:42;;;;;;;16.33;8.30;;;;;;;;;;4960596;28;20041;-82
2024/03/15 04:32:09;;;;;;;16.77;8.85;;;;;;;;;;4984513;28;20374;-82
2024/03/15 04:34:37;;;;;;;13.90;7.60;;;;;;;;;;4994609;28;20040;-79
2024/03/15 04:37:06;;;;;;;17.05;8.32;;;;;;;;;;4967124;28;20034;-81
2024/03/15 04:39:32;;;;;;;15.50;8.27;;;;;;;;;;5006847;28;20037;-82
2024/03/15 04:41:57;;;;;;;13.30;8.38;;;;;;;;;;4968399;28;20034;-81
2024/03/15 04:44:24;;;;;;;18.38;8.95;;;;;;;;;;4977027;28;20037;-82
2024/03/15 04:46:50;;;;;;;17.48;8.50;;;;;;;;;;4995531;28;20026;-82
2024/03/15 04:49:17;;;;;;;18.40;9.13;;;;;;;;;;4973900;28;20042;-82
2024/03/15 04:51:43;;;;;;;18.27;9.15;;;;;;;;;;4991806;28;20030;-82
2024/03/15 04:54:08;;;;;;;15.30;8.32;;;;;;;;;;4983607;28;20084;-82
2024/03/15 04:56:34;;;;;;;15.63;8.10;;;;;;;;;;4969408;28;20097;-80
2024/03/15 04:59:00;;;;;;;14.40;8.32;;;;;;;;;;4966797;28;20042;-80
2024/03/15 05:01:25;;;;;;;15.75;8.02;;;;;;;;;;4999909;28;20086;-79
2024/03/15 05:03:51;;;;;;;15.55;8.27;;;;;;;;;;5019238;28;20026;-78
2024/03/15 05:06:16;;;;;;;19.73;9.63;;;;;;;;;;5003205;28;20049;-82
2024/03/15 05:08:42;;;;;;;17.08;8.23;;;;;;;;;;4973481;28;20040;-81
2024/03/15 05:11:07;;;;;;;17.42;8.68;;;;;;;;;;4988782;28;20093;-81
2024/03/15 05:13:35;;;;;;;16.95;8.82;;;;;;;;;;5018172;28;20081;-81
2024/03/15 05:16:01;;;;;;;17.67;9.20;;;;;;;;;;4996431;28;20126;-81
2024/03/15 05:18:29;;;;;;;16.25;8.35;;;;;;;;;;4994712;28;20075;-81
2024/03/15 05:20:57;;;;;;;21.17;11.02;;;;;;;;;;4985736;28;20062;-82
2024/03/15 05:23:22;;;;;;;15.98;8.73;;;;;;;;;;4972852;28;20076;-81
2024/03/15 05:25:48;;;;;;;17.90;9.23;;;;;;;;;;5026111;28;20034;-81
2024/03/15 05:28:14;;;;;;;18.70;9.07;;;;;;;;;;4988396;28;20035;-83
2024/03/15 05:30:40;;;;;;;21.50;9.75;;;;;;;;;;4983120;28;20069;-83
2024/03/15 05:33:06;;;;;;;19.40;9.38;;;;;;;;;;4984461;28;20045;-82
2024/03/15 05:35:32;;;;;;;19.52;9.73;;;;;;;;;;4974921;28;20180;-82
2024/03/15 05:37:58;;;;;;;22.13;8.98;;;;;;;;;;4980729;28;20034;-81
2024/03/15 05:40:26;;;;;;;18.50;9.65;;;;;;;;;;4971618;28;20042;-81
2024/03/15 05:42:55;;;;;;;16.77;9.23;;;;;;;;;;4960747;28;20066;-82
2024/03/15 05:45:24;;;;;;;20.58;9.65;;;;;;;;;;5007697;28;20048;-82
2024/03/15 05:47:52;;;;;;;19.95;9.80;;;;;;;;;;4978880;28;20065;-83
2024/03/15 05:50:21;;;;;;;19.75;9.10;;;;;;;;;;5003424;28;20034;-83
2024/03/15 05:52:46;;;;;;;19.55;9.65;;;;;;;;;;4997679;28;20066;-82
2024/03/15 05:55:13;;;;;;;19.88;9.35;;;;;;;;;;4992012;28;20041;-82
2024/03/15 05:57:43;;;;;;;20.35;9.48;;;;;;;;;;5025804;28;20033;-82
2024/03/15 06:00:13;;;;;;;16.73;8.65;;;;;;;;;;5017574;28;20066;-83
2024/03/15 06:02:39;;;;;;;18.20;9.63;;;;;;;;;;5018479;28;20029;-81
2024/03/15 06:05:11;;;;;;;23.48;10.35;;;;;;;;;;5013099;28;20035;-82
2024/03/15 06:07:38;;;;;;;22.45;10.32;;;;;;;;;;4989530;28;20019;-82
2024/03/15 06:10:04;;;;;;;20.40;9.43;;;;;;;;;;4967182;28;20111;-82
2024/03/15 06:12:31;;;;;;;17.77;9.88;;;;;;;;;;5005855;28;20047;-82
2024/03/15 06:14:56;;;;;;;25.40;9.90;;;;;;;;;;4996597;28;20294;-82
2024/03/15 06:17:22;;;;;;;20.02;10.77;;;;;;;;;;4983002;28;20053;-83
2024/03/15 06:19:51;;;;;;;18.88;9.13;;;;;;;;;;4980289;28;20034;-81
2024/03/15 06:22:17;;;;;;;16.98;10.13;;;;;;;;;;4983239;28;20035;-83
2024/03/15 06:24:46;;;;;;;16.42;9.25;;;;;;;;;;5011669;28;20038;-84
2024/03/15 06:27:14;;;;;;;21.83;9.85;;;;;;;;;;4991492;28;20042;-83
2024/03/15 06:29:43;;;;;;;15.13;8.35;;;;;;;;;;4995125;28;20056;-83
2024/03/15 06:32:14;;;;;;;20.45;9.98;;;;;;;;;;5005018;28;20041;-82
2024/03/15 06:34:41;;;;;;;18.98;10.70;;;;;;;;;;4988850;28;20064;-83
2024/03/15 06:37:12;;;;;;;22.10;10.15;;;;;;;;;;5005383;28;20534;-83
2024/03/15 06:42:20;;;;;;;16.73;9.45;;;;;;;;;;4975837;28;20037;-82
2024/03/15 06:44:50;;;;;;;20.17;9.82;;;;;;;;;;4970631;28;20030;-82
2024/03/15 06:47:16;;;;;;;20.42;10.27;;;;;;;;;;4972359;28;20030;-81
2024/03/15 06:52:37;;;;;;;20.35;10.73;;;;;;;;;;4971681;28;20046;-81
2024/03/15 06:55:04;;;;;;;24.05;10.07;;;;;;;;;;4974986;28;20030;-81
2024/03/15 06:57:32;;;;;;;17.25;9.80;;;;;;;;;;5000191;28;20041;-81
2024/03/15 07:00:03;;;;;;;19.30;10.05;;;;;;;;;;4998419;28;20033;-82
2024/03/15 07:02:31;;;;;;;20.40;10.60;;;;;;;;;;4994680;28;20045;-83
2024/03/15 07:04:57;;;;;;;23.50;10.07;;;;;;;;;;4986525;28;20030;-83
2024/03/15 07:07:24;;;;;;;21.65;9.65;;;;;;;;;;5023475;28;20080;-83
2024/03/15 07:09:50;;;;;;;19.77;10.73;;;;;;;;;;4969544;28;20039;-83
2024/03/15 07:12:16;;;;;;;22.95;10.73;;;;;;;;;;4983020;28;20041;-82
2024/03/15 07:14:42;;;;;;;18.90;10.38;;;;;;;;;;4998551;28;20038;-82
2024/03/15 07:17:09;;;;;;;22.92;11.05;;;;;;;;;;4998203;28;20034;-81
2024/03/15 07:19:35;;;;;;;19.48;11.13;;;;;;;;;;4990022;28;20029;-82
2024/03/15 07:22:01;;;;;;;19.17;10.45;;;;;;;;;;5023311;28;20044;-82
2024/03/15 07:24:31;;;;;;;20.30;11.15;;;;;;;;;;5025825;28;20069;-81
2024/03/15 07:26:57;;;;;;;22.90;10.35;;;;;;;;;;4979668;28;20466;-83
2024/03/15 07:29:24;;;;;;;22.73;11.18;;;;;;;;;;4994910;28;20033;-83
2024/03/15 07:31:50;;;;;;;21.23;11.85;;;;;;;;;;4985112;28;20519;-83
2024/03/15 07:34:16;;;;;;;23.95;10.90;;;;;;;;;;5001494;28;20030;-81
2024/03/15 07:36:44;;;;;;;19.33;10.95;;;;;;;;;;4987725;28;20038;-81
2024/03/15 07:39:10;;;;;;;22.67;10.95;;;;;;;;;;5001482;28;20034;-82
2024/03/15 07:41:38;;;;;;;21.20;10.27;;;;;;;;;;5010313;28;20030;-81
2024/03/15 07:44:05;;;;;;;19.90;11.05;;;;;;;;;;4996732;28;20037;-81
2024/03/15 07:46:34;;;;;;;22.85;11.95;;;;;;;;;;4990047;28;20059;-81
2024/03/15 07:49:00;;;;;;;25.02;11.80;;;;;;;;;;4994289;28;20084;-82
2024/03/15 07:51:25;;;;;;;20.85;12.23;;;;;;;;;;4992059;28;20050;-81
2024/03/15 07:53:51;;;;;;;24.02;12.55;;;;;;;;;;5010452;28;20037;-81
2024/03/15 07:56:17;;;;;;;18.85;11.10;;;;;;;;;;4975629;28;20493;-81
2024/03/15 07:58:42;;;;;;;20.30;10.98;;;;;;;;;;5007770;28;20273;-82
2024/03/15 08:01:08;;;;;;;19.95;11.48;;;;;;;;;;4991491;28;20105;-82
2024/03/15 08:03:34;;;;;;;18.35;10.05;;;;;;;;;;4988529;28;20125;-82
2024/03/15 08:06:00;;;;;;;18.10;10.77;;;;;;;;;;4975558;28;20069;-81
2024/03/15 08:08:26;;;;;;;26.63;11.38;;;;;;;;;;4981442;28;20096;-82
2024/03/15 08:10:52;;;;;;;28.80;12.77;;;;;;;;;;5019655;28;20069;-82
2024/03/15 08:13:25;;;;;;;19.77;10.88;;;;;;;;;;5012136;28;20050;-82
2024/03/15 08:15:55;;;;;;;19.92;10.40;;;;;;;;;;4988787;28;20042;-82
2024/03/15 08:18:27;;;;;;;17.75;10.43;;;;;;;;;;4991631;28;20026;-83
2024/03/15 08:20:53;;;;;;;15.85;9.02;;;;;;;;;;4998327;28;20049;-82
2024/03/15 08:23:27;;;;;;;23.45;10.98;;;;;;;;;;5009671;28;20033;-82
2024/03/15 08:25:58;;;;;;;19.42;10.25;;;;;;;;;;5000352;28;20045;-83
2024/03/15 08:28:23;;;;;;;17.33;9.45;;;;;;;;;;4989023;28;20034;-82
2024/03/15 08:30:49;;;;;;;16.90;9.40;;;;;;;;;;5006344;28;20030;-83
2024/03/15 08:33:20;;;;;;;19.52;9.45;;;;;;;;;;4958992;28;20039;-83
2024/03/15 08:35:47;;;;;;;17.80;9.73;;;;;;;;;;4990195;28;20046;-82
2024/03/15 08:38:15;;;;;;;16.42;9.73;;;;;;;;;;5003748;28;20025;-83
2024/03/15 08:40:41;;;;;;;16.63;8.90;;;;;;;;;;4994750;28;20030;-83
2024/03/15 08:43:08;;;;;;;18.38;9.52;;;;;;;;;;4985060;28;20030;-82
2024/03/15 08:45:35;;;;;;;19.42;9.05;;;;;;;;;;4992022;28;20027;-84
2024/03/15 08:48:03;;;;;;;16.20;9.32;;;;;;;;;;4958699;28;20061;-82
2024/03/15 08:50:32;;;;;;;21.50;10.32;;;;;;;;;;4993240;28;20032;-81
2024/03/15 08:52:59;;;;;;;18.02;10.23;;;;;;;;;;4982555;28;20496;-82
2024/03/15 08:55:25;;;;;;;20.35;10.55;;;;;;;;;;5000037;28;20041;-83
2024/03/15 08:57:52;;;;;;;20.08;9.93;;;;;;;;;;4994075;28;20044;-82
2024/03/15 09:00:19;;;;;;;18.83;10.38;;;;;;;;;;4980779;28;20173;-83
2024/03/15 09:02:45;;;;;;;19.77;9.77;;;;;;;;;;4972056;28;20058;-82
2024/03/15 09:05:12;;;;;;;14.40;8.75;;;;;;;;;;4979579;28;20030;-82
2024/03/15 09:07:38;;;;;;;18.73;9.60;;;;;;;;;;4983272;28;20097;-83
2024/03/15 09:10:13;;;;;;;15.30;8.50;;;;;;;;;;4982467;28;20044;-83
2024/03/15 09:12:40;;;;;;;16.02;8.55;;;;;;;;;;5003938;28;20029;-83
2024/03/15 09:15:08;;;;;;;18.75;8.60;;;;;;;;;;4991103;28;20031;-83
2024/03/15 09:17:33;;;;;;;18.60;9.82;;;;;;;;;;4979713;28;20089;-83
2024/03/15 09:20:08;;;;;;;18.98;9.48;;;;;;;;;;4982968;28;20022;-82
2024/03/15 09:22:35;;;;;;;13.98;7.68;;;;;;;;;;5016045;28;20057;-83
2024/03/15 09:25:01;;;;;;;16.50;8.30;;;;;;;;;;4987962;28;20065;-83
2024/03/15 09:27:27;;;;;;;14.38;7.97;;;;;;;;;;5014665;28;20040;-82
2024/03/15 09:29:53;;;;;;;15.23;8.13;;;;;;;;;;4986602;28;20034;-83
2024/03/15 09:32:21;;;;;;;13.82;7.72;;;;;;;;;;4996489;28;20523;-83
2024/03/15 09:34:48;;;;;;;13.30;7.28;;;;;;;;;;4973652;28;20034;-82
2024/03/15 09:37:16;;;;;;;16.25;8.18;;;;;;;;;;5022084;28;20037;-82
2024/03/15 09:39:42;;;;;;;15.60;7.35;;;;;;;;;;5006417;28;20057;-83
2024/03/15 09:42:20;;;;;;;13.40;7.28;;;;;;;;;;5017112;28;20029;-82
2024/03/15 09:44:48;;;;;;;15.45;7.68;;;;;;;;;;5010108;28;20021;-82
2024/03/15 09:47:14;;;;;;;11.07;6.55;;;;;;;;;;5026140;28;20047;-82
2024/03/15 09:49:42;;;;;;;12.07;6.45;;;;;;;;;;5010164;28;20034;-82
2024/03/15 09:52:10;;;;;;;10.27;6.22;;;;;;;;;;5019889;28;20033;-82
2024/03/15 09:54:35;;;;;;;16.08;7.82;;;;;;;;;;5005865;28;20037;-80
2024/03/15 09:57:04;;;;;;;10.93;5.20;;;;;;;;;;4978081;28;20069;-82
2024/03/15 09:59:34;;;;;;;10.85;4.55;;;;;;;;;;4963868;28;20030;-82
2024/03/15 10:02:07;;;;;;;10.48;4.90;;;;;;;;;;4998859;28;20085;-83
2024/03/15 10:04:38;;;;;;;11.18;5.13;;;;;;;;;;5005801;28;20088;-83
2024/03/15 10:07:05;;;;;;;10.02;5.00;;;;;;;;;;4982749;28;20404;-82
2024/03/15 10:09:32;;;;;;;9.75;4.60;;;;;;;;;;4996417;28;20037;-81
2024/03/15 10:11:59;;;;;;;9.10;5.35;;;;;;;;;;5001792;28;20069;-82
2024/03/15 10:14:26;;;;;;;12.10;5.22;;;;;;;;;;4995157;28;20091;-83
2024/03/15 10:16:53;;;;;;;7.78;4.10;;;;;;;;;;4975643;28;20037;-83
2024/03/15 10:19:20;;;;;;;8.45;4.55;;;;;;;;;;5002117;28;20273;-82
2024/03/15 10:21:46;;;;;;;7.05;4.20;;;;;;;;;;4987415;28;20029;-81
2024/03/15 10:24:16;;;;;;;10.17;4.93;;;;;;;;;;5011190;28;20038;-83
2024/03/15 10:26:42;;;;;;;11.88;5.03;;;;;;;;;;4977188;28;20287;-83
2024/03/15 10:29:11;;;;;;;8.75;5.30;;;;;;;;;;4989757;28;20045;-82
2024/03/15 10:31:37;;;;;;;10.82;4.70;;;;;;;;;;5002017;28;20101;-81
2024/03/15 10:34:04;;;;;;;10.48;5.07;;;;;;;;;;4999815;28;20045;-84
2024/03/15 10:36:33;;;;;;;9.10;4.60;;;;;;;;;;5000737;28;20014;-83
2024/03/15 10:38:59;;;;;;;8.98;5.05;;;;;;;;;;4981564;28;20037;-81
2024/03/15 10:41:25;;;;;;;9.07;5.18;;;;;;;;;;4965468;28;20099;-83
2024/03/15 10:43:52;;;;;;;12.18;5.47;;;;;;;;;;4957959;28;20085;-82
2024/03/15 10:46:18;;;;;;;8.63;5.07;;;;;;;;;;4986050;28;20110;-82
2024/03/15 10:48:44;;;;;;;10.93;4.95;;;;;;;;;;4988226;28;20038;-82
2024/03/15 10:51:11;;;;;;;10.85;5.75;;;;;;;;;;4968825;28;20034;-83
2024/03/15 10:53:37;;;;;;;11.85;5.18;;;;;;;;;;4989218;28;20079;-81
2024/03/15 10:56:04;;;;;;;11.38;5.93;;;;;;;;;;5002131;28;20041;-82
2024/03/15 10:58:29;;;;;;;10.13;5.32;;;;;;;;;;4989063;28;20029;-82
2024/03/15 11:00:55;;;;;;;10.30;5.88;;;;;;;;;;4975621;28;20038;-81
2024/03/15 11:03:27;;;;;;;9.00;5.55;;;;;;;;;;4979809;28;20034;-81
2024/03/15 11:05:53;;;;;;;9.07;5.28;;;;;;;;;;4987018;28;20120;-83
2024/03/15 11:08:24;;;;;;;10.40;5.20;;;;;;;;;;4988962;28;20399;-82
2024/03/15 11:10:56;;;;;;;9.68;5.57;;;;;;;;;;4975340;28;20030;-81
2024/03/15 11:13:23;;;;;;;9.13;5.35;;;;;;;;;;4977029;28;20062;-81
2024/03/15 11:15:49;;;;;;;12.10;5.18;;;;;;;;;;4978406;28;20031;-82
2024/03/15 11:18:15;;;;;;;7.82;4.72;;;;;;;;;;4995361;28;20085;-82
2024/03/15 11:20:56;;;;;;;8.65;5.28;;;;;;;;;;4976567;28;20044;-82
2024/03/15 11:23:26;;;;;;;10.63;5.20;;;;;;;;;;4990115;28;20042;-82
2024/03/15 11:25:58;;;;;;;12.63;5.28;;;;;;;;;;4958968;28;20033;-81
2024/03/15 11:28:24;;;;;;;10.48;5.05;;;;;;;;;;4987191;28;20044;-83
2024/03/15 11:30:50;;;;;;;7.85;4.35;;;;;;;;;;5011020;28;20030;-82
2024/03/15 11:33:16;;;;;;;10.85;4.50;;;;;;;;;;5008240;28;20045;-82
2024/03/15 11:35:44;;;;;;;9.15;4.20;;;;;;;;;;5020731;28;20042;-81
2024/03/15 11:38:17;;;;;;;9.50;4.05;;;;;;;;;;4986569;28;20101;-82
2024/03/15 11:40:43;;;;;;;7.80;4.22;;;;;;;;;;5017325;28;20034;-81
2024/03/15 11:43:09;;;;;;;9.60;4.22;;;;;;;;;;4983268;28;20465;-81
2024/03/15 11:45:39;;;;;;;7.15;3.63;;;;;;;;;;4985354;28;20029;-81
2024/03/15 11:48:20;;;;;;;10.00;4.18;;;;;;;;;;4980398;28;20045;-81
2024/03/15 11:50:46;;;;;;;9.25;4.20;;;;;;;;;;5011611;28;20087;-81
2024/03/15 11:53:12;;;;;;;6.82;4.03;;;;;;;;;;5012619;28;20196;-81
2024/03/15 11:55:41;;;;;;;9.05;4.38;;;;;;;;;;4993641;28;20045;-81
2024/03/15 11:58:27;;;;;;;9.98;4.35;;;;;;;;;;4990084;28;20034;-81
2024/03/15 12:00:56;;;;;;;6.60;3.55;;;;;;;;;;4991461;28;20036;-82
2024/03/15 12:03:30;;;;;;;7.85;4.32;;;;;;;;;;4998729;28;20058;-81
2024/03/15 12:05:58;;;;;;;11.50;4.70;;;;;;;;;;5004534;28;20279;-81
2024/03/15 12:08:26;;;;;;;7.00;3.28;;;;;;;;;;4986950;28;20097;-82
2024/03/15 12:10:53;;;;;;;5.60;2.70;;;;;;;;;;4999201;28;20042;-83
2024/03/15 12:13:23;;;;;;;5.93;3.05;;;;;;;;;;4998088;28;20055;-82
2024/03/15 12:15:50;;;;;;;5.95;2.85;;;;;;;;;;5006591;28;20033;-83
2024/03/15 12:18:18;;;;;;;12.80;3.20;;;;;;;;;;5018044;28;20033;-82
2024/03/15 12:20:44;;;;;;;5.45;2.78;;;;;;;;;;4996966;28;20033;-82
2024/03/15 12:23:15;;;;;;;10.98;4.35;;;;;;;;;;4989809;28;20055;-83
2024/03/15 12:25:41;;;;;;;8.27;3.60;;;;;;;;;;4983469;28;20065;-82
2024/03/15 12:28:10;;;;;;;8.52;3.63;;;;;;;;;;4984634;28;20022;-82
2024/03/15 12:30:40;;;;;;;10.93;3.75;;;;;;;;;;4981135;28;20091;-81
2024/03/15 12:33:13;;;;;;;10.05;4.10;;;;;;;;;;4974521;28;20105;-81
2024/03/15 12:35:39;;;;;;;8.63;3.50;;;;;;;;;;4973709;28;20401;-82
2024/03/15 12:38:10;;;;;;;6.03;3.08;;;;;;;;;;4975054;28;20389;-82
2024/03/15 12:40:42;;;;;;;6.63;2.75;;;;;;;;;;5011939;28;20033;-83
2024/03/15 12:43:09;;;;;;;5.68;2.20;;;;;;;;;;5010489;28;20432;-82
2024/03/15 12:45:35;;;;;;;6.70;1.92;;;;;;;;;;5011919;28;20026;-82
2024/03/15 12:48:02;;;;;;;4.70;1.85;;;;;;;;;;4967583;28;20041;-82
2024/03/15 12:50:31;;;;;;;2.47;1.20;;;;;;;;;;4967236;28;20045;-82
2024/03/15 12:52:57;;;;;;;;;;;;;;;;;;4983704;28;20030;-83
2024/03/15 12:55:25;;;;;;;3.08;1.17;;;;;;;;;;4992785;28;20320;-83
2024/03/15 12:57:55;;;;;;;3.05;1.27;;;;;;;;;;4974546;28;20037;-84
2024/03/15 13:00:28;;;;;;;4.13;1.38;;;;;;;;;;5013042;28;20183;-82
2024/03/15 13:02:54;;;;;;;4.03;1.60;;;;;;;;;;4995285;28;20034;-81
2024/03/15 13:05:20;;;;;;;3.17;1.35;;;;;;;;;;4972709;28;20034;-82
2024/03/15 13:07:46;;;;;;;4.95;1.20;;;;;;;;;;4972122;28;20045;-83
2024/03/15 13:10:13;;;;;;;3.65;1.55;;;;;;;;;;5000662;28;20183;-82
2024/03/15 13:12:40;;;;;;;8.20;1.20;;;;;;;;;;4998842;28;20057;-82
2024/03/15 13:15:12;;;;;;;2.80;1.60;;;;;;;;;;5009275;28;20067;-83
2024/03/15 13:17:38;;;;;;;6.25;1.50;;;;;;;;;;4980145;28;20030;-83
2024/03/15 13:20:04;;;;;;;3.53;1.38;;;;;;;;;;5012629;28;20060;-81
2024/03/15 13:22:30;;;;;;;4.95;1.80;;;;;;;;;;4999052;28;20081;-82
2024/03/15 13:24:56;;;;;;;3.58;1.63;;;;;;;;;;4991187;28;20033;-81
2024/03/15 13:27:22;;;;;;;2.90;1.73;;;;;;;;;;4982966;28;20473;-82
2024/03/15 13:29:49;;;;;;;5.82;1.85;;;;;;;;;;5002696;28;20037;-82
2024/03/15 13:32:16;;;;;;;4.88;1.75;;;;;;;;;;5009510;28;20045;-81
2024/03/15 13:34:44;;;;;;;4.55;1.90;;;;;;;;;;5007928;28;20033;-82
2024/03/15 13:37:10;;;;;;;4.65;2.22;;;;;;;;;;4978164;28;20440;-82
2024/03/15 13:39:36;;;;;;;6.93;2.42;;;;;;;;;;4982758;28;20062;-82
2024/03/15 13:42:03;;;;;;;7.47;2.10;;;;;;;;;;4997422;28;20034;-82
2024/03/15 13:44:30;;;;;;;3.72;2.13;;;;;;;;;;4965504;28;20042;-82
2024/03/15 13:47:01;;;;;;;4.35;2.17;;;;;;;;;;4961921;28;20050;-82
2024/03/15 13:49:27;;;;;;;4.72;1.88;;;;;;;;;;4978671;28;20038;-83
2024/03/15 13:51:53;;;;;;;4.78;1.60;;;;;;;;;;4967212;28;20021;-82
2024/03/15 13:54:19;;;;;;;6.25;1.70;;;;;;;;;;4991891;28;20034;-82
2024/03/15 13:56:46;;;;;;;8.63;1.80;;;;;;;;;;5005606;28;20029;-83
2024/03/15 13:59:13;;;;;;;6.32;1.50;;;;;;;;;;4988848;28;20052;-83
2024/03/15 14:01:39;;;;;;;4.90;1.45;;;;;;;;;;5012368;28;20021;-82
2024/03/15 14:04:07;;;;;;;4.18;1.40;;;;;;;;;;4995376;28;20073;-83
2024/03/15 14:06:33;;;;;;;3.80;1.40;;;;;;;;;;4987096;28;20018;-83
2024/03/15 14:09:00;;;;;;;4.07;1.30;;;;;;;;;;4988256;28;20101;-83
2024/03/15 14:11:27;;;;;;;7.03;1.42;;;;;;;;;;4962642;28;20065;-81
2024/03/15 14:13:55;;;;;;;4.78;1.70;;;;;;;;;;5014522;28;20097;-84
2024/03/15 14:16:23;;;;;;;4.13;1.40;;;;;;;;;;5022243;28;20037;-83
2024/03/15 14:18:49;;;;;;;2.97;1.38;;;;;;;;;;4999819;28;20048;-82
2024/03/15 14:21:16;;;;;;;5.25;1.75;;;;;;;;;;5007292;28;20030;-83
2024/03/15 14:23:46;;;;;;;3.63;1.52;;;;;;;;;;5008819;28;20038;-83
2024/03/15 14:26:17;;;;;;;3.65;1.30;;;;;;;;;;4972083;28;20104;-83
2024/03/15 14:28:43;;;;;;;2.95;1.40;;;;;;;;;;4999900;28;20201;-82
2024/03/15 14:31:10;;;;;;;4.03;1.52;;;;;;;;;;5004653;28;20092;-81
2024/03/15 14:33:36;;;;;;;3.38;1.20;;;;;;;;;;5010407;28;20018;-82
2024/03/15 14:36:02;;;;;;;5.50;1.40;;;;;;;;;;5009482;28;20048;-82
2024/03/15 14:38:30;;;;;;;3.05;1.40;;;;;;;;;;5018894;28;20037;-81